الصفحة الرئيسية
METAR-TAF:

METAR-TAF

مطار :

مطار كوالالمبور الدولي

كوالالمبور, ماليزيا

دائرة عرض: 02-44N, خط طول: 101-42E, ارتفاع: 21 متر

مراقبة الطقس الحالي

تاريخ ووقت الإصدار 41 دقيقة قبل الساعة 20:00UTC
ريح 1 عقدةمن اتجاهات متغيرة
درجة الحرارة 27°درجة مئوية
الرطوبة 94%
ضغط 1010 hPa
الرؤية: 7000 متر
غيوم قليلة على ارتفاع 600 قدم

METAR: WMKK 292000Z VRB01KT 7000 FEW006 27/26 Q1010 NOSIG

زمن: 04:41 (20:41 UTC)

توقعات

تاريخ ووقت الإصدار 3ساعات و 41 دقيقة قبل الساعة 17:00UTC
التوقعات صالحة من29 الساعة 18 UTC إلى 31 الساعة 00 UTC
ريح 3 عقدةمن اتجاهات متغيرة
الرؤية 10 كم أو أكثر
غيوم قليلة على ارتفاع 3000 قدم
أصبح
من 29 الساعة 22 UTC إلى 30 الساعة 00 UTC
ريح 6 عقدة من الجنوب/الجنوب الشرقي
غيوم قليلة على ارتفاع 1700 قدم, مزنة ركامية.
مؤقت
من 30 الساعة 07 UTC إلى 30 الساعة 11 UTC
الرؤية: 4000 متر
غيوم قليلة على ارتفاع 1000 قدم
غيوم قليلة على ارتفاع 1700 قدم, مزنة ركامية.
غيوم متفرقة على ارتفاع 2000 قدم
عاصفة رعدية, مطر

TAF: WMKK 291700Z 2918/3100 VRB03KT 9999 FEW030 BECMG 2922/3000 15006KT FEW017CB TEMPO 3007/3011 4000 TSRA FEW010 FEW017CB SCT020

أرصاد الطقس والتوقعات من أكثر من 4000 مطار (تقارير الطقس للمطار METAR والتنبؤ بالطقس بالمطارTAF).

المحطات المتاحة هي النقط الصفراء والحمراء على الخريطة.

حرك المؤشر فوق النقطة لمعرفة اسم المحطة.

ثم انقر لمعرفة أرصاد وتوقعات الطقس.

لتغيير الخارطة: اضغط على الأزرار الخضراء مع رمز الصليب الأسود للتكبير. على الزر الأخضر مع شرطة للتصغير، أو على الأسهم الخضراء للخرائط المجاورة.


METAR-TAF: